Latest Coastal Weather Observations for Taree Airport

IDN60701

Issued at 9:15 pm EST Wednesday 30 July 2014 (issued every 10 minutes, with the page automatically refreshed every 10 minutes)

About coastal observations | Map of coastal stations | Coastal observations for NSW | Marine services | Other Formats
Station Details ID: 060141 Name: TAREE AIRPORT AWS Lat: -31.89 Lon: 152.51 Height: 8.0 m
Data from the previous 72 hours. | See also: Recent months at Taree Airport
Date/Time
EST
Temp

°C
Wind Pressure Rain
since 9am
mm
Weather Cloud Vis
km
Sea
Height
m
Swell
Dir
 
Speed
knots
Gust
knots
hPa Trend Height
m
Period
s
Dir
30/09:00pm 11.5 W 3 4 1018.5 - 0.0 - - - - - - -
30/08:30pm 12.9 NW 2 6 1018.2 - 0.0 - - - - - - -
30/08:00pm 13.0 NW 4 7 1018.1 - 0.0 - - - - - - -
30/07:30pm 13.6 NW 2 5 1018.0 - 0.0 - - - - - - -
30/07:00pm 16.4 W 3 5 1017.5 - 0.0 - - - - - - -
30/06:30pm 15.3 NNW 2 5 1016.9 - 0.0 - - - - - - -
30/06:00pm 17.0 WSW 5 6 1016.7 - 0.0 - - - - - - -
30/05:30pm 17.6 E 4 5 1016.3 - 0.0 - - - - - - -
30/05:00pm 19.9 SE 5 7 1016.0 - 0.0 - - - - - - -
30/04:30pm 24.3 W 7 9 1015.9 - 0.0 - - - - - - -
30/04:00pm 24.9 WNW 7 10 1015.6 - 0.0 - - - - - - -
30/03:30pm 25.4 WNW 6 11 1015.5 - 0.0 - - - - - - -
30/03:00pm 25.8 WNW 8 10 1015.5 - 0.0 - - - - - - -
30/02:30pm 25.4 NW 7 12 1015.6 - 0.0 - - - - - - -
30/02:00pm 25.2 NNW 6 9 1015.9 - 0.0 - - - - - - -
30/01:30pm 24.6 WNW 8 13 1016.2 - 0.0 - - - - - - -
30/01:00pm 24.0 W 6 9 1016.7 - 0.0 - - - - - - -
30/12:30pm 23.6 W 8 14 1017.4 - 0.0 - - - - - - -
30/12:00pm 22.9 W 8 12 1018.2 - 0.0 - - - - - - -
30/11:30am 22.8 W 10 13 1018.9 - 0.0 - - - - - - -
30/11:00am 21.6 SW 6 9 1019.5 - 0.0 - - - - - - -
30/10:30am 21.1 SW 5 7 1019.8 - 0.0 - - - - - - -
30/10:00am 19.3 S 5 6 1020.1 - 0.0 - - - - - - -
30/09:30am 17.5 CALM 0 0 1020.2 - 0.0 - - - - - - -
30/09:00am 14.2 S 3 4 1020.3 - 0.2 - - - - - - -
30/08:30am 11.2 S 3 5 1020.1 - 0.2 - - - - - - -
30/08:00am 8.7 NNW 5 6 1020.0 - 0.2 - - - - - - -
30/07:30am 5.3 CALM 0 3 1019.9 - 0.2 - - - - - - -
30/07:00am 4.1 SSW 3 5 1019.7 - 0.2 - - - - - - -
30/06:30am 2.9 CALM 0 0 1019.2 - 0.2 - - - - - - -
30/06:00am 3.4 CALM 0 0 1019.0 - 0.2 - - - - - - -
30/05:30am 4.5 N 2 5 1018.7 - 0.2 - - - - - - -
30/05:00am 4.7 E 2 4 1018.5 - 0.2 - - - - - - -
30/04:30am 3.4 N 3 5 1018.1 - 0.2 - - - - - - -
30/04:00am 4.4 N 4 5 1017.9 - 0.2 - - - - - - -
30/03:30am 4.8 N 3 5 1018.0 - 0.2 - - - - - - -
30/03:00am 4.9 CALM 0 0 1018.0 - 0.2 - - - - - - -
30/02:30am 4.1 CALM 0 2 1018.0 - 0.2 - - - - - - -
30/02:00am 5.1 N 1 4 1018.0 - 0.2 - - - - - - -
30/01:30am 4.1 NNE 1 4 1018.2 - 0.2 - - - - - - -
30/01:00am 4.7 CALM 0 3 1018.4 - 0.2 - - - - - - -
30/12:30am 6.3 CALM 0 0 1018.5 - 0.2 - - - - - - -
30/12:00am 6.5 NNW 3 4 1018.6 - 0.2 - - - - - - -
 
Date/Time
EST
Temp

°C
Wind Pressure Rain
since 9am
mm
Weather Cloud Vis
km
Sea
Height
m
Swell
Dir
 
Speed
knots
Gust
knots
hPa Trend Height
m
Period
s
Dir
29/11:30pm 7.5 NNW 4 6 1018.9 - 0.2 - - - - - - -
29/11:00pm 9.4 WNW 4 5 1019.1 - 0.2 - - - - - - -
29/10:30pm 9.3 CALM 0 0 1019.2 - 0.2 - - - - - - -
29/10:00pm 7.4 S 2 4 1019.2 - 0.2 - - - - - - -
29/09:30pm 10.0 NNW 4 6 1019.2 - 0.2 - - - - - - -
29/09:00pm 12.3 WNW 7 8 1019.2 - 0.2 - - - - - - -
29/08:30pm 10.4 NW 4 5 1019.1 - 0.2 - - - - - - -
29/08:00pm 11.9 NW 1 5 1019.1 - 0.2 - - - - - - -
29/07:30pm 13.8 NNW 3 6 1018.8 - 0.2 - - - - - - -
29/07:00pm 12.5 CALM 0 0 1019.0 - 0.2 - - - - - - -
29/06:30pm 12.2 CALM 0 0 1018.2 - 0.2 - - - - - - -
29/06:00pm 13.3 NE 4 5 1017.9 - 0.2 - - - - - - -
29/05:30pm 18.2 WNW 4 5 1017.6 - 0.2 - - - - - - -
29/05:00pm 19.2 W 5 5 1017.1 - 0.2 - - - - - - -
29/04:30pm 20.2 WNW 4 6 1017.0 - 0.2 - - - - - - -
29/04:00pm 21.2 WNW 7 10 1016.7 - 0.2 - - - - - - -
29/03:30pm 21.7 W 8 11 1016.9 - 0.2 - - - - - - -
29/03:00pm 21.9 WNW 9 14 1016.5 - 0.2 - Mostly clear - - - - -
29/02:30pm 22.4 NW 8 14 1016.5 - 0.2 - - - - - - -
29/02:00pm 22.1 WNW 6 14 1016.6 - 0.2 - - - - - - -
29/01:30pm 21.8 W 7 11 1017.1 - 0.2 - - - - - - -
29/01:00pm 21.3 WNW 8 13 1017.7 - 0.2 - - - - - - -
29/12:30pm 21.2 WNW 8 12 1018.2 - 0.2 - - - - - - -
29/12:00pm 21.2 W 8 12 1018.9 - 0.2 - - - - - - -
29/11:30am 20.6 WNW 10 15 1019.4 - 0.2 - - - - - - -
29/11:00am 20.1 WNW 8 13 1019.9 - 0.2 - - - - - - -
29/10:30am 18.1 NW 7 9 1020.2 - 0.2 - - - - - - -
29/10:00am 16.4 W 5 7 1020.8 - 0.0 - - - - - - -
29/09:30am 14.3 W 5 7 1020.9 - 0.0 - - - - - - -
29/09:00am 12.3 W 5 7 1020.9 - 0.0 - - - - - - -
29/08:30am 10.6 WNW 4 5 1020.9 - 0.0 - - - - - - -
29/08:00am 8.0 W 2 4 1020.8 - 0.0 - - - - - - -
29/07:30am 6.3 W 1 4 1020.8 - 0.0 - - - - - - -
29/07:00am 5.6 NW 5 5 1020.6 - 0.0 - - - - - - -
29/06:30am 5.5 W 3 5 1020.5 - 0.0 - - - - - - -
29/06:00am 5.1 W 3 6 1020.1 - 0.0 - - - - - - -
29/05:30am 6.6 W 4 6 1020.0 - 0.0 - - - - - - -
29/05:00am 6.1 W 4 6 1019.8 - 0.0 - - - - - - -
29/04:30am 6.2 WNW 5 6 1019.6 - 0.0 - - - - - - -
29/04:00am 5.1 WNW 4 5 1019.5 - 0.0 - - - - - - -
29/03:30am 4.3 WNW 4 6 1019.4 - 0.0 - - - - - - -
29/03:00am 3.6 CALM 0 4 1019.4 - 0.0 - - - - - - -
29/02:30am 7.1 W 6 7 1019.3 - 0.0 - - - - - - -
29/02:00am 5.9 WNW 2 6 1019.6 - 0.0 - - - - - - -
29/01:30am 5.4 CALM 0 0 1019.7 - 0.0 - - - - - - -
29/01:00am 6.2 W 4 6 1020.0 - 0.0 - - - - - - -
29/12:30am 6.0 W 2 4 1020.2 - 0.0 - - - - - - -
29/12:00am 5.6 CALM 0 0 1020.3 - 0.0 - - - - - - -
 
Date/Time
EST
Temp

°C
Wind Pressure Rain
since 9am
mm
Weather Cloud Vis
km
Sea
Height
m
Swell
Dir
 
Speed
knots
Gust
knots
hPa Trend Height
m
Period
s
Dir
28/11:30pm 6.4 CALM 0 0 1020.6 - 0.0 - - - - - - -
28/11:00pm 6.7 CALM 0 0 1020.7 - 0.0 - - - - - - -
28/10:30pm 5.9 CALM 0 0 1020.8 - 0.0 - - - - - - -
28/10:00pm 7.1 CALM 0 0 1020.7 - 0.0 - - - - - - -
28/09:30pm 6.9 CALM 0 0 1020.8 - 0.0 - - - - - - -
28/09:00pm 8.3 NNW 4 6 1020.8 - 0.0 - - - - - - -
28/08:30pm 9.0 CALM 0 0 1020.8 - 0.0 - - - - - - -
28/08:00pm 9.9 CALM 0 3 1020.5 - 0.0 - - - - - - -
28/07:30pm 10.6 SW 3 4 1020.3 - 0.0 - - - - - - -
28/07:00pm 11.0 CALM 0 0 1020.2 - 0.0 - - - - - - -
28/06:30pm 12.0 CALM 0 0 1019.8 - 0.0 - - - - - - -
28/06:00pm 13.1 CALM 0 3 1019.5 - 0.0 - - - - - - -
28/05:30pm 13.6 E 4 5 1019.2 - 0.0 - - - - - - -
28/05:00pm 15.3 ESE 4 6 1019.1 - 0.0 - - - - - - -
28/04:30pm 16.6 ESE 7 11 1018.8 - 0.0 - - - - - - -
28/04:00pm 17.5 ESE 8 10 1018.5 - 0.0 - - - - - - -
28/03:30pm 18.7 ESE 7 10 1018.3 - 0.0 - - - - - - -
28/03:00pm 20.5 SW 5 7 1018.2 - 0.0 - - - - - - -
28/02:30pm 21.0 W 4 7 1018.2 - 0.0 - - - - - - -
28/02:00pm 20.6 W 7 11 1018.4 - 0.0 - - - - - - -
28/01:30pm 20.5 W 7 10 1018.5 - 0.0 - - - - - - -
28/01:00pm 19.7 SW 6 9 1019.0 - 0.0 - - - - - - -
28/12:30pm 19.5 NNW 4 6 1019.4 - 0.0 - - - - - - -
28/12:00pm 18.8 WSW 5 9 1019.8 - 0.0 - - - - - - -
28/11:30am 17.6 WSW 7 9 1020.4 - 0.0 - - - - - - -
28/11:00am 17.7 WNW 7 9 1021.0 - 0.0 - - - - - - -
28/10:30am 16.2 WNW 6 9 1021.8 - 0.0 - - - - - - -
28/10:00am 14.5 WSW 5 7 1022.4 - 0.0 - - - - - - -
28/09:30am 12.8 W 6 8 1022.6 - 0.0 - - - - - - -
28/09:00am 11.5 W 6 7 1022.7 - 0.2 - - - - - - -
28/08:30am 9.6 W 7 9 1022.8 - 0.2 - - - - - - -
28/08:00am 7.7 W 5 6 1022.6 - 0.2 - - - - - - -
28/07:30am 6.5 W 4 5 1022.3 - 0.2 - - - - - - -
28/07:00am 3.8 CALM 0 0 1022.0 - 0.2 - - - - - - -
28/06:30am 2.6 N 3 4 1021.8 - 0.2 - - - - - - -
28/06:00am 6.1 W 6 7 1022.1 - 0.2 - Mostly cloudy - - - - -
28/05:30am 5.0 CALM 0 0 1021.5 - 0.2 - - - - - - -
28/05:00am 3.5 N 1 4 1021.4 - 0.2 - - - - - - -
28/04:30am 5.7 WNW 1 4 1021.5 - 0.2 - - - - - - -
28/04:00am 5.8 W 6 8 1021.1 - 0.2 - - - - - - -
28/03:30am 3.2 NW 1 4 1020.8 - 0.2 - - - - - - -
28/03:00am 3.9 CALM 0 0 1021.1 - 0.2 - - - - - - -
28/02:30am 4.5 NW 1 3 1021.1 - 0.2 - - - - - - -
28/02:00am 5.8 W 4 6 1021.3 - 0.2 - - - - - - -
28/01:30am 5.3 WNW 1 3 1021.5 - 0.2 - - - - - - -
28/01:00am 5.7 CALM 0 0 1021.9 - 0.2 - - - - - - -
28/12:30am 5.9 CALM 0 0 1022.0 - 0.2 - - - - - - -
28/12:00am 6.9 W 4 4 1022.5 - 0.2 - - - - - - -
 
Date/Time
EST
Temp

°C
Wind Pressure Rain
since 9am
mm
Weather Cloud Vis
km
Sea
Height
m
Swell
Dir
 
Speed
knots
Gust
knots
hPa Trend Height
m
Period
s
Dir
27/11:30pm 6.8 WNW 3 4 1022.9 - 0.2 - - - - - - -
27/11:00pm 7.2 WSW 4 5 1023.2 - 0.2 - - - - - - -
27/10:30pm 7.7 W 3 4 1023.6 - 0.2 - - - - - - -
27/10:00pm 8.2 W 4 4 1023.7 - 0.2 - - - - - - -
27/09:30pm 8.4 CALM 0 3 1023.9 - 0.2 - - - - - - -

Other Formats:

Comma delimited format used in spreadsheet applications
http://www.bom.gov.au/fwo/IDN60701/IDN60701.95784.axf

JavaScript Object Notation format (JSON) in row-major order
http://www.bom.gov.au/fwo/IDN60701/IDN60701.95784.json